Colorado Springs Aviation Decision Support Information(Rapid Prototype)

Last Page Refresh(page does not auto refresh):
000
FTUS45 KPUB 041740
TAFCOS
TAF
KCOS 041740Z 0418/0518 10007KT P6SM SCT030 BKN040 BKN070
     FM042000 13008KT P6SM VCSH SCT030 BKN050
      TEMPO 0420/0423 -SHSN BKN028
     FM042300 16006KT P6SM VCSH SCT035 BKN050
     FM050200 30007KT P6SM SCT050
     FM050700 35005KT P6SM SKC=

Please provide any comments or suggestion to the web master email addresse below.


USA.gov is the U.S. government's official web portal to all federal, state and local government web resources and services.